sensor_id;sensor_type;location;lat;lon;timestamp;P1;durP1;ratioP1;P2;durP2;ratioP2
72156;SDS011;60035;52.122;5.406;2023-05-08T00:00:34;13.75;;;7.40;;
72156;SDS011;60035;52.122;5.406;2023-05-08T00:03:04;12.35;;;7.72;;
72156;SDS011;60035;52.122;5.406;2023-05-08T00:05:31;15.50;;;7.93;;
72156;SDS011;60035;52.122;5.406;2023-05-08T00:08:05;22.00;;;10.75;;
72156;SDS011;60035;52.122;5.406;2023-05-08T00:10:32;15.85;;;9.25;;
72156;SDS011;60035;52.122;5.406;2023-05-08T00:13:07;15.55;;;9.23;;
72156;SDS011;60035;52.122;5.406;2023-05-08T00:15:34;20.50;;;8.85;;
72156;SDS011;60035;52.122;5.406;2023-05-08T00:18:04;18.27;;;10.43;;
72156;SDS011;60035;52.122;5.406;2023-05-08T00:20:34;23.52;;;10.30;;
72156;SDS011;60035;52.122;5.406;2023-05-08T00:23:00;17.48;;;9.75;;
72156;SDS011;60035;52.122;5.406;2023-05-08T00:25:27;20.33;;;10.90;;
72156;SDS011;60035;52.122;5.406;2023-05-08T00:27:53;17.08;;;9.60;;
72156;SDS011;60035;52.122;5.406;2023-05-08T00:30:20;15.25;;;9.25;;
72156;SDS011;60035;52.122;5.406;2023-05-08T00:32:47;16.63;;;9.55;;
72156;SDS011;60035;52.122;5.406;2023-05-08T00:35:13;15.85;;;9.18;;
72156;SDS011;60035;52.122;5.406;2023-05-08T00:37:40;14.73;;;9.23;;
72156;SDS011;60035;52.122;5.406;2023-05-08T00:40:07;14.15;;;8.60;;
72156;SDS011;60035;52.122;5.406;2023-05-08T00:42:35;18.33;;;8.90;;
72156;SDS011;60035;52.122;5.406;2023-05-08T00:45:02;15.80;;;9.48;;
72156;SDS011;60035;52.122;5.406;2023-05-08T00:47:29;16.83;;;9.38;;
72156;SDS011;60035;52.122;5.406;2023-05-08T00:49:57;16.30;;;8.65;;
72156;SDS011;60035;52.122;5.406;2023-05-08T00:52:25;17.77;;;8.50;;
72156;SDS011;60035;52.122;5.406;2023-05-08T00:54:54;15.50;;;8.43;;
72156;SDS011;60035;52.122;5.406;2023-05-08T00:57:21;16.52;;;9.73;;
72156;SDS011;60035;52.122;5.406;2023-05-08T00:59:56;14.82;;;8.77;;
72156;SDS011;60035;52.122;5.406;2023-05-08T01:02:40;14.60;;;8.90;;
72156;SDS011;60035;52.122;5.406;2023-05-08T01:05:06;14.70;;;8.95;;
72156;SDS011;60035;52.122;5.406;2023-05-08T01:07:33;14.55;;;8.95;;
72156;SDS011;60035;52.122;5.406;2023-05-08T01:10:00;16.42;;;9.93;;
72156;SDS011;60035;52.122;5.406;2023-05-08T01:12:33;16.65;;;9.98;;
72156;SDS011;60035;52.122;5.406;2023-05-08T01:15:47;16.65;;;10.02;;
72156;SDS011;60035;52.122;5.406;2023-05-08T01:18:17;16.95;;;9.95;;
72156;SDS011;60035;52.122;5.406;2023-05-08T01:20:52;18.02;;;9.80;;
72156;SDS011;60035;52.122;5.406;2023-05-08T01:29:35;22.58;;;10.18;;
72156;SDS011;60035;52.122;5.406;2023-05-08T01:32:37;31.40;;;10.55;;
72156;SDS011;60035;52.122;5.406;2023-05-08T01:43:43;25.35;;;10.00;;
72156;SDS011;60035;52.122;5.406;2023-05-08T01:46:31;23.35;;;10.23;;
72156;SDS011;60035;52.122;5.406;2023-05-08T01:49:00;23.00;;;9.98;;
72156;SDS011;60035;52.122;5.406;2023-05-08T01:51:44;23.48;;;10.38;;
72156;SDS011;60035;52.122;5.406;2023-05-08T01:54:16;18.15;;;10.57;;
72156;SDS011;60035;52.122;5.406;2023-05-08T01:56:47;17.10;;;9.60;;
72156;SDS011;60035;52.122;5.406;2023-05-08T01:59:19;16.27;;;9.68;;
72156;SDS011;60035;52.122;5.406;2023-05-08T02:01:47;23.15;;;10.48;;
72156;SDS011;60035;52.122;5.406;2023-05-08T02:04:16;26.15;;;9.82;;
72156;SDS011;60035;52.122;5.406;2023-05-08T02:06:44;25.55;;;10.68;;
72156;SDS011;60035;52.122;5.406;2023-05-08T02:09:11;22.38;;;10.13;;
72156;SDS011;60035;52.122;5.406;2023-05-08T02:11:38;26.77;;;10.50;;
72156;SDS011;60035;52.122;5.406;2023-05-08T02:14:08;34.10;;;10.55;;
72156;SDS011;60035;52.122;5.406;2023-05-08T02:16:38;27.42;;;10.95;;
72156;SDS011;60035;52.122;5.406;2023-05-08T02:19:07;17.85;;;9.93;;
72156;SDS011;60035;52.122;5.406;2023-05-08T02:21:35;20.83;;;10.10;;
72156;SDS011;60035;52.122;5.406;2023-05-08T02:24:04;16.45;;;9.98;;
72156;SDS011;60035;52.122;5.406;2023-05-08T02:26:31;27.92;;;10.38;;
72156;SDS011;60035;52.122;5.406;2023-05-08T02:29:01;38.17;;;11.52;;
72156;SDS011;60035;52.122;5.406;2023-05-08T02:31:28;42.55;;;11.25;;
72156;SDS011;60035;52.122;5.406;2023-05-08T02:33:55;37.72;;;11.35;;
72156;SDS011;60035;52.122;5.406;2023-05-08T02:36:24;32.45;;;11.32;;
72156;SDS011;60035;52.122;5.406;2023-05-08T02:38:52;26.88;;;11.43;;
72156;SDS011;60035;52.122;5.406;2023-05-08T02:41:21;19.98;;;9.18;;
72156;SDS011;60035;52.122;5.406;2023-05-08T02:43:50;22.13;;;9.43;;
72156;SDS011;60035;52.122;5.406;2023-05-08T02:52:16;17.70;;;8.95;;
72156;SDS011;60035;52.122;5.406;2023-05-08T02:58:08;17.45;;;9.50;;
72156;SDS011;60035;52.122;5.406;2023-05-08T03:00:45;16.55;;;9.38;;
72156;SDS011;60035;52.122;5.406;2023-05-08T03:03:31;21.08;;;9.40;;
72156;SDS011;60035;52.122;5.406;2023-05-08T03:06:06;22.38;;;9.32;;
72156;SDS011;60035;52.122;5.406;2023-05-08T03:08:39;19.05;;;9.60;;
72156;SDS011;60035;52.122;5.406;2023-05-08T03:11:08;24.83;;;9.73;;
72156;SDS011;60035;52.122;5.406;2023-05-08T03:13:39;24.75;;;8.63;;
72156;SDS011;60035;52.122;5.406;2023-05-08T03:16:14;23.40;;;9.95;;
72156;SDS011;60035;52.122;5.406;2023-05-08T03:18:50;25.05;;;10.00;;
72156;SDS011;60035;52.122;5.406;2023-05-08T03:21:18;21.80;;;9.35;;
72156;SDS011;60035;52.122;5.406;2023-05-08T03:23:47;21.52;;;9.43;;
72156;SDS011;60035;52.122;5.406;2023-05-08T03:26:17;21.75;;;9.55;;
72156;SDS011;60035;52.122;5.406;2023-05-08T03:28:47;30.77;;;9.57;;
72156;SDS011;60035;52.122;5.406;2023-05-08T03:31:17;23.08;;;10.82;;
72156;SDS011;60035;52.122;5.406;2023-05-08T03:33:46;19.98;;;9.95;;
72156;SDS011;60035;52.122;5.406;2023-05-08T03:36:14;21.00;;;9.63;;
72156;SDS011;60035;52.122;5.406;2023-05-08T03:38:41;22.17;;;9.70;;
72156;SDS011;60035;52.122;5.406;2023-05-08T03:41:08;21.48;;;10.57;;
72156;SDS011;60035;52.122;5.406;2023-05-08T03:43:35;23.50;;;9.65;;
72156;SDS011;60035;52.122;5.406;2023-05-08T03:46:05;22.17;;;8.85;;
72156;SDS011;60035;52.122;5.406;2023-05-08T03:48:32;22.02;;;9.45;;
72156;SDS011;60035;52.122;5.406;2023-05-08T03:51:00;28.90;;;11.43;;
72156;SDS011;60035;52.122;5.406;2023-05-08T03:53:30;35.88;;;9.50;;
72156;SDS011;60035;52.122;5.406;2023-05-08T03:55:58;36.03;;;8.98;;
72156;SDS011;60035;52.122;5.406;2023-05-08T03:58:27;48.13;;;10.20;;
72156;SDS011;60035;52.122;5.406;2023-05-08T04:04:00;42.85;;;10.00;;
72156;SDS011;60035;52.122;5.406;2023-05-08T04:06:43;29.95;;;9.60;;
72156;SDS011;60035;52.122;5.406;2023-05-08T04:09:25;23.15;;;9.68;;
72156;SDS011;60035;52.122;5.406;2023-05-08T04:14:29;26.88;;;9.32;;
72156;SDS011;60035;52.122;5.406;2023-05-08T04:17:02;26.98;;;9.32;;
72156;SDS011;60035;52.122;5.406;2023-05-08T04:19:32;24.77;;;9.50;;
72156;SDS011;60035;52.122;5.406;2023-05-08T04:22:06;27.63;;;9.13;;
72156;SDS011;60035;52.122;5.406;2023-05-08T04:24:36;19.35;;;9.43;;
72156;SDS011;60035;52.122;5.406;2023-05-08T04:27:08;22.00;;;9.02;;
72156;SDS011;60035;52.122;5.406;2023-05-08T04:29:35;27.35;;;9.70;;
72156;SDS011;60035;52.122;5.406;2023-05-08T04:32:02;23.40;;;8.90;;
72156;SDS011;60035;52.122;5.406;2023-05-08T04:34:30;26.90;;;9.07;;
72156;SDS011;60035;52.122;5.406;2023-05-08T04:36:57;20.65;;;9.70;;
72156;SDS011;60035;52.122;5.406;2023-05-08T04:39:24;31.80;;;9.40;;
72156;SDS011;60035;52.122;5.406;2023-05-08T04:41:50;29.23;;;10.18;;
72156;SDS011;60035;52.122;5.406;2023-05-08T04:44:17;30.02;;;9.98;;
72156;SDS011;60035;52.122;5.406;2023-05-08T04:46:44;22.38;;;9.13;;
72156;SDS011;60035;52.122;5.406;2023-05-08T04:49:10;27.08;;;9.48;;
72156;SDS011;60035;52.122;5.406;2023-05-08T04:51:37;34.47;;;9.70;;
72156;SDS011;60035;52.122;5.406;2023-05-08T04:54:03;32.05;;;9.32;;
72156;SDS011;60035;52.122;5.406;2023-05-08T04:56:30;22.85;;;9.10;;
72156;SDS011;60035;52.122;5.406;2023-05-08T04:58:56;20.70;;;9.25;;
72156;SDS011;60035;52.122;5.406;2023-05-08T05:01:23;21.00;;;9.32;;
72156;SDS011;60035;52.122;5.406;2023-05-08T05:03:49;24.73;;;9.40;;
72156;SDS011;60035;52.122;5.406;2023-05-08T05:06:16;14.80;;;8.63;;
72156;SDS011;60035;52.122;5.406;2023-05-08T05:08:42;14.80;;;8.85;;
72156;SDS011;60035;52.122;5.406;2023-05-08T05:11:08;14.70;;;8.27;;
72156;SDS011;60035;52.122;5.406;2023-05-08T05:13:35;13.45;;;8.25;;
72156;SDS011;60035;52.122;5.406;2023-05-08T05:16:02;14.18;;;9.00;;
72156;SDS011;60035;52.122;5.406;2023-05-08T05:18:28;13.57;;;8.25;;
72156;SDS011;60035;52.122;5.406;2023-05-08T05:20:56;12.93;;;8.40;;
72156;SDS011;60035;52.122;5.406;2023-05-08T05:23:23;12.75;;;8.65;;
72156;SDS011;60035;52.122;5.406;2023-05-08T05:25:50;12.50;;;8.07;;
72156;SDS011;60035;52.122;5.406;2023-05-08T05:28:16;12.95;;;8.60;;
72156;SDS011;60035;52.122;5.406;2023-05-08T05:30:45;14.60;;;8.82;;
72156;SDS011;60035;52.122;5.406;2023-05-08T05:33:12;13.70;;;7.78;;
72156;SDS011;60035;52.122;5.406;2023-05-08T05:35:39;12.45;;;8.23;;
72156;SDS011;60035;52.122;5.406;2023-05-08T05:38:05;13.90;;;9.45;;
72156;SDS011;60035;52.122;5.406;2023-05-08T05:40:32;14.00;;;8.77;;
72156;SDS011;60035;52.122;5.406;2023-05-08T05:42:58;13.57;;;8.68;;
72156;SDS011;60035;52.122;5.406;2023-05-08T05:45:25;13.48;;;8.73;;
72156;SDS011;60035;52.122;5.406;2023-05-08T05:47:51;15.02;;;9.75;;
72156;SDS011;60035;52.122;5.406;2023-05-08T05:50:19;13.35;;;8.93;;
72156;SDS011;60035;52.122;5.406;2023-05-08T05:52:46;13.20;;;9.00;;
72156;SDS011;60035;52.122;5.406;2023-05-08T05:55:13;14.90;;;9.30;;
72156;SDS011;60035;52.122;5.406;2023-05-08T05:57:40;14.63;;;9.15;;
72156;SDS011;60035;52.122;5.406;2023-05-08T06:00:07;16.13;;;9.95;;
72156;SDS011;60035;52.122;5.406;2023-05-08T06:02:37;15.10;;;10.23;;
72156;SDS011;60035;52.122;5.406;2023-05-08T06:05:04;15.73;;;10.23;;
72156;SDS011;60035;52.122;5.406;2023-05-08T06:07:31;14.77;;;9.73;;
72156;SDS011;60035;52.122;5.406;2023-05-08T06:09:58;16.70;;;10.50;;
72156;SDS011;60035;52.122;5.406;2023-05-08T06:12:25;17.00;;;10.60;;
72156;SDS011;60035;52.122;5.406;2023-05-08T06:14:53;15.80;;;10.27;;
72156;SDS011;60035;52.122;5.406;2023-05-08T06:17:20;16.60;;;11.80;;
72156;SDS011;60035;52.122;5.406;2023-05-08T06:19:47;19.52;;;12.32;;
72156;SDS011;60035;52.122;5.406;2023-05-08T06:22:15;19.25;;;11.02;;
72156;SDS011;60035;52.122;5.406;2023-05-08T06:24:43;20.95;;;12.65;;
72156;SDS011;60035;52.122;5.406;2023-05-08T06:27:10;20.73;;;11.88;;
72156;SDS011;60035;52.122;5.406;2023-05-08T06:29:37;20.02;;;12.60;;
72156;SDS011;60035;52.122;5.406;2023-05-08T06:32:03;20.38;;;12.45;;
72156;SDS011;60035;52.122;5.406;2023-05-08T06:34:30;20.80;;;12.50;;
72156;SDS011;60035;52.122;5.406;2023-05-08T06:36:56;19.15;;;12.70;;
72156;SDS011;60035;52.122;5.406;2023-05-08T06:39:23;19.73;;;11.50;;
72156;SDS011;60035;52.122;5.406;2023-05-08T06:41:49;21.88;;;13.38;;
72156;SDS011;60035;52.122;5.406;2023-05-08T06:44:16;21.20;;;13.65;;
72156;SDS011;60035;52.122;5.406;2023-05-08T06:46:42;22.85;;;13.27;;
72156;SDS011;60035;52.122;5.406;2023-05-08T06:49:09;23.20;;;13.93;;
72156;SDS011;60035;52.122;5.406;2023-05-08T06:51:35;23.90;;;14.18;;
72156;SDS011;60035;52.122;5.406;2023-05-08T06:54:03;26.17;;;16.08;;
72156;SDS011;60035;52.122;5.406;2023-05-08T06:56:33;24.17;;;14.02;;
72156;SDS011;60035;52.122;5.406;2023-05-08T06:59:00;25.00;;;15.23;;
72156;SDS011;60035;52.122;5.406;2023-05-08T07:01:34;26.05;;;15.60;;
72156;SDS011;60035;52.122;5.406;2023-05-08T07:04:02;24.58;;;14.80;;
72156;SDS011;60035;52.122;5.406;2023-05-08T07:06:30;25.20;;;15.50;;
72156;SDS011;60035;52.122;5.406;2023-05-08T07:08:56;27.27;;;16.55;;
72156;SDS011;60035;52.122;5.406;2023-05-08T07:11:23;25.63;;;15.50;;
72156;SDS011;60035;52.122;5.406;2023-05-08T07:13:49;24.13;;;16.13;;
72156;SDS011;60035;52.122;5.406;2023-05-08T07:16:16;24.73;;;15.23;;
72156;SDS011;60035;52.122;5.406;2023-05-08T07:18:43;26.33;;;16.63;;
72156;SDS011;60035;52.122;5.406;2023-05-08T07:21:09;25.65;;;16.30;;
72156;SDS011;60035;52.122;5.406;2023-05-08T07:23:36;23.63;;;15.32;;
72156;SDS011;60035;52.122;5.406;2023-05-08T07:26:02;25.33;;;16.15;;
72156;SDS011;60035;52.122;5.406;2023-05-08T07:28:29;28.10;;;16.73;;
72156;SDS011;60035;52.122;5.406;2023-05-08T07:30:55;29.05;;;18.88;;
72156;SDS011;60035;52.122;5.406;2023-05-08T07:33:22;28.13;;;17.20;;
72156;SDS011;60035;52.122;5.406;2023-05-08T07:35:50;28.35;;;17.33;;
72156;SDS011;60035;52.122;5.406;2023-05-08T07:38:16;28.35;;;17.15;;
72156;SDS011;60035;52.122;5.406;2023-05-08T07:40:43;26.27;;;17.48;;
72156;SDS011;60035;52.122;5.406;2023-05-08T07:43:09;27.10;;;17.58;;
72156;SDS011;60035;52.122;5.406;2023-05-08T07:45:36;31.15;;;18.52;;
72156;SDS011;60035;52.122;5.406;2023-05-08T07:48:02;32.70;;;19.13;;
72156;SDS011;60035;52.122;5.406;2023-05-08T07:50:29;33.63;;;18.75;;
72156;SDS011;60035;52.122;5.406;2023-05-08T07:52:56;32.28;;;18.70;;
72156;SDS011;60035;52.122;5.406;2023-05-08T07:55:23;33.42;;;19.67;;
72156;SDS011;60035;52.122;5.406;2023-05-08T07:57:49;32.10;;;19.77;;
72156;SDS011;60035;52.122;5.406;2023-05-08T08:00:16;30.60;;;18.65;;
72156;SDS011;60035;52.122;5.406;2023-05-08T08:02:43;29.00;;;18.15;;
72156;SDS011;60035;52.122;5.406;2023-05-08T08:05:10;31.50;;;19.20;;
72156;SDS011;60035;52.122;5.406;2023-05-08T08:07:37;30.52;;;18.45;;
72156;SDS011;60035;52.122;5.406;2023-05-08T08:10:04;33.78;;;19.98;;
72156;SDS011;60035;52.122;5.406;2023-05-08T08:12:31;31.08;;;19.25;;
72156;SDS011;60035;52.122;5.406;2023-05-08T08:14:57;30.88;;;17.35;;
72156;SDS011;60035;52.122;5.406;2023-05-08T08:17:24;28.40;;;18.25;;
72156;SDS011;60035;52.122;5.406;2023-05-08T08:19:53;31.90;;;18.85;;
72156;SDS011;60035;52.122;5.406;2023-05-08T08:22:20;26.65;;;17.58;;
72156;SDS011;60035;52.122;5.406;2023-05-08T08:24:47;34.15;;;18.35;;
72156;SDS011;60035;52.122;5.406;2023-05-08T08:27:13;27.83;;;18.33;;
72156;SDS011;60035;52.122;5.406;2023-05-08T08:29:40;28.75;;;17.52;;
72156;SDS011;60035;52.122;5.406;2023-05-08T08:32:06;27.52;;;16.85;;
72156;SDS011;60035;52.122;5.406;2023-05-08T08:34:33;24.98;;;15.50;;
72156;SDS011;60035;52.122;5.406;2023-05-08T08:36:59;28.13;;;17.85;;
72156;SDS011;60035;52.122;5.406;2023-05-08T08:39:26;27.05;;;17.17;;
72156;SDS011;60035;52.122;5.406;2023-05-08T08:41:53;30.08;;;16.45;;
72156;SDS011;60035;52.122;5.406;2023-05-08T08:44:19;26.10;;;16.63;;
72156;SDS011;60035;52.122;5.406;2023-05-08T08:46:51;26.85;;;18.25;;
72156;SDS011;60035;52.122;5.406;2023-05-08T08:49:22;28.58;;;16.77;;
72156;SDS011;60035;52.122;5.406;2023-05-08T08:51:52;27.98;;;18.40;;
72156;SDS011;60035;52.122;5.406;2023-05-08T08:54:23;27.23;;;19.13;;
72156;SDS011;60035;52.122;5.406;2023-05-08T08:56:55;26.52;;;17.70;;
72156;SDS011;60035;52.122;5.406;2023-05-08T08:59:25;27.42;;;17.70;;
72156;SDS011;60035;52.122;5.406;2023-05-08T09:01:54;25.98;;;17.95;;
72156;SDS011;60035;52.122;5.406;2023-05-08T09:04:23;24.63;;;16.73;;
72156;SDS011;60035;52.122;5.406;2023-05-08T09:06:54;26.08;;;17.52;;
72156;SDS011;60035;52.122;5.406;2023-05-08T09:09:23;26.63;;;17.67;;
72156;SDS011;60035;52.122;5.406;2023-05-08T09:11:50;23.52;;;16.38;;
72156;SDS011;60035;52.122;5.406;2023-05-08T09:14:17;26.55;;;17.02;;
72156;SDS011;60035;52.122;5.406;2023-05-08T09:16:44;23.70;;;16.52;;
72156;SDS011;60035;52.122;5.406;2023-05-08T09:19:12;22.95;;;15.63;;
72156;SDS011;60035;52.122;5.406;2023-05-08T09:21:40;22.98;;;16.35;;
72156;SDS011;60035;52.122;5.406;2023-05-08T09:24:06;25.52;;;16.75;;
72156;SDS011;60035;52.122;5.406;2023-05-08T09:26:38;23.88;;;16.50;;
72156;SDS011;60035;52.122;5.406;2023-05-08T09:29:19;23.55;;;16.75;;
72156;SDS011;60035;52.122;5.406;2023-05-08T09:31:48;24.25;;;16.90;;
72156;SDS011;60035;52.122;5.406;2023-05-08T09:34:29;26.17;;;15.98;;
72156;SDS011;60035;52.122;5.406;2023-05-08T09:39:31;22.23;;;15.85;;
72156;SDS011;60035;52.122;5.406;2023-05-08T09:42:01;24.45;;;16.70;;
72156;SDS011;60035;52.122;5.406;2023-05-08T09:47:14;22.60;;;15.82;;
72156;SDS011;60035;52.122;5.406;2023-05-08T09:50:01;25.23;;;15.77;;
72156;SDS011;60035;52.122;5.406;2023-05-08T09:52:32;30.73;;;17.25;;
72156;SDS011;60035;52.122;5.406;2023-05-08T09:57:30;25.90;;;17.77;;
72156;SDS011;60035;52.122;5.406;2023-05-08T10:00:02;28.35;;;17.73;;
72156;SDS011;60035;52.122;5.406;2023-05-08T10:02:34;23.77;;;16.20;;
72156;SDS011;60035;52.122;5.406;2023-05-08T10:05:02;27.10;;;15.45;;
72156;SDS011;60035;52.122;5.406;2023-05-08T10:07:31;26.52;;;17.60;;
72156;SDS011;60035;52.122;5.406;2023-05-08T10:10:03;29.67;;;17.65;;
72156;SDS011;60035;52.122;5.406;2023-05-08T10:12:31;32.92;;;18.58;;
72156;SDS011;60035;52.122;5.406;2023-05-08T10:14:58;32.97;;;18.90;;
72156;SDS011;60035;52.122;5.406;2023-05-08T10:17:26;31.77;;;19.27;;
72156;SDS011;60035;52.122;5.406;2023-05-08T10:20:03;35.30;;;21.35;;
72156;SDS011;60035;52.122;5.406;2023-05-08T10:22:35;39.20;;;23.23;;
72156;SDS011;60035;52.122;5.406;2023-05-08T10:25:02;41.60;;;23.80;;
72156;SDS011;60035;52.122;5.406;2023-05-08T10:30:27;43.92;;;24.55;;
72156;SDS011;60035;52.122;5.406;2023-05-08T10:32:56;46.53;;;27.40;;
72156;SDS011;60035;52.122;5.406;2023-05-08T10:35:24;40.80;;;24.50;;
72156;SDS011;60035;52.122;5.406;2023-05-08T10:37:51;45.50;;;24.63;;
72156;SDS011;60035;52.122;5.406;2023-05-08T10:40:20;48.53;;;27.00;;
72156;SDS011;60035;52.122;5.406;2023-05-08T10:42:47;48.38;;;26.70;;
72156;SDS011;60035;52.122;5.406;2023-05-08T10:45:14;52.35;;;27.25;;
72156;SDS011;60035;52.122;5.406;2023-05-08T10:47:50;55.95;;;26.23;;
72156;SDS011;60035;52.122;5.406;2023-05-08T10:53:05;51.20;;;27.52;;
72156;SDS011;60035;52.122;5.406;2023-05-08T10:55:37;46.75;;;26.52;;
72156;SDS011;60035;52.122;5.406;2023-05-08T10:58:10;46.28;;;26.75;;
72156;SDS011;60035;52.122;5.406;2023-05-08T11:03:18;47.30;;;26.13;;
72156;SDS011;60035;52.122;5.406;2023-05-08T11:05:57;46.60;;;26.42;;
72156;SDS011;60035;52.122;5.406;2023-05-08T11:08:25;52.67;;;28.23;;
72156;SDS011;60035;52.122;5.406;2023-05-08T11:19:22;53.60;;;28.85;;
72156;SDS011;60035;52.122;5.406;2023-05-08T11:24:56;53.50;;;29.48;;
72156;SDS011;60035;52.122;5.406;2023-05-08T11:35:41;62.30;;;31.52;;
72156;SDS011;60035;52.122;5.406;2023-05-08T11:41:04;54.75;;;31.08;;
72156;SDS011;60035;52.122;5.406;2023-05-08T11:48:32;53.88;;;31.00;;
72156;SDS011;60035;52.122;5.406;2023-05-08T11:50:59;54.10;;;30.27;;
72156;SDS011;60035;52.122;5.406;2023-05-08T11:53:26;49.53;;;29.75;;
72156;SDS011;60035;52.122;5.406;2023-05-08T11:55:53;50.10;;;30.10;;
72156;SDS011;60035;52.122;5.406;2023-05-08T11:58:20;56.17;;;32.03;;
72156;SDS011;60035;52.122;5.406;2023-05-08T12:00:47;52.85;;;30.88;;
72156;SDS011;60035;52.122;5.406;2023-05-08T12:03:15;51.30;;;28.77;;
72156;SDS011;60035;52.122;5.406;2023-05-08T12:05:43;55.15;;;31.13;;
72156;SDS011;60035;52.122;5.406;2023-05-08T12:08:12;52.42;;;27.65;;
72156;SDS011;60035;52.122;5.406;2023-05-08T12:10:53;52.20;;;29.42;;
72156;SDS011;60035;52.122;5.406;2023-05-08T12:15:56;44.78;;;27.23;;
72156;SDS011;60035;52.122;5.406;2023-05-08T12:18:25;49.78;;;28.23;;
72156;SDS011;60035;52.122;5.406;2023-05-08T12:20:55;50.05;;;27.98;;
72156;SDS011;60035;52.122;5.406;2023-05-08T12:23:26;49.70;;;27.55;;
72156;SDS011;60035;52.122;5.406;2023-05-08T12:25:57;48.17;;;28.00;;
72156;SDS011;60035;52.122;5.406;2023-05-08T12:28:24;43.03;;;25.27;;
72156;SDS011;60035;52.122;5.406;2023-05-08T12:30:51;42.83;;;25.33;;
72156;SDS011;60035;52.122;5.406;2023-05-08T12:33:17;46.08;;;26.77;;
72156;SDS011;60035;52.122;5.406;2023-05-08T12:35:44;43.17;;;24.65;;
72156;SDS011;60035;52.122;5.406;2023-05-08T12:38:11;43.35;;;27.30;;
72156;SDS011;60035;52.122;5.406;2023-05-08T12:40:42;43.58;;;25.90;;
72156;SDS011;60035;52.122;5.406;2023-05-08T12:43:10;41.25;;;24.95;;
72156;SDS011;60035;52.122;5.406;2023-05-08T12:45:40;36.58;;;23.02;;
72156;SDS011;60035;52.122;5.406;2023-05-08T12:48:09;36.70;;;21.75;;
72156;SDS011;60035;52.122;5.406;2023-05-08T12:50:37;37.28;;;22.55;;
72156;SDS011;60035;52.122;5.406;2023-05-08T12:53:09;38.78;;;21.75;;
72156;SDS011;60035;52.122;5.406;2023-05-08T12:55:50;34.75;;;21.65;;
72156;SDS011;60035;52.122;5.406;2023-05-08T12:58:18;34.83;;;21.02;;
72156;SDS011;60035;52.122;5.406;2023-05-08T13:00:49;36.17;;;21.23;;
72156;SDS011;60035;52.122;5.406;2023-05-08T13:03:24;35.53;;;21.67;;
72156;SDS011;60035;52.122;5.406;2023-05-08T13:05:52;37.20;;;21.50;;
72156;SDS011;60035;52.122;5.406;2023-05-08T13:08:27;36.83;;;22.00;;
72156;SDS011;60035;52.122;5.406;2023-05-08T13:10:58;37.00;;;22.77;;
72156;SDS011;60035;52.122;5.406;2023-05-08T13:13:26;33.08;;;20.98;;
72156;SDS011;60035;52.122;5.406;2023-05-08T13:15:55;35.17;;;22.23;;
72156;SDS011;60035;52.122;5.406;2023-05-08T13:18:25;33.38;;;20.92;;
72156;SDS011;60035;52.122;5.406;2023-05-08T13:20:55;33.92;;;20.88;;
72156;SDS011;60035;52.122;5.406;2023-05-08T13:23:23;34.60;;;21.25;;
72156;SDS011;60035;52.122;5.406;2023-05-08T13:25:49;35.30;;;21.00;;
72156;SDS011;60035;52.122;5.406;2023-05-08T13:28:16;32.75;;;19.75;;
72156;SDS011;60035;52.122;5.406;2023-05-08T13:30:42;29.85;;;19.25;;
72156;SDS011;60035;52.122;5.406;2023-05-08T13:33:09;30.23;;;18.70;;
72156;SDS011;60035;52.122;5.406;2023-05-08T13:35:36;31.58;;;19.50;;
72156;SDS011;60035;52.122;5.406;2023-05-08T13:38:02;35.05;;;19.70;;
72156;SDS011;60035;52.122;5.406;2023-05-08T13:40:29;33.30;;;20.48;;
72156;SDS011;60035;52.122;5.406;2023-05-08T13:42:55;32.70;;;20.52;;
72156;SDS011;60035;52.122;5.406;2023-05-08T13:45:22;34.22;;;21.20;;
72156;SDS011;60035;52.122;5.406;2023-05-08T13:47:48;31.60;;;19.60;;
72156;SDS011;60035;52.122;5.406;2023-05-08T13:50:16;31.77;;;19.27;;
72156;SDS011;60035;52.122;5.406;2023-05-08T13:52:44;32.70;;;19.92;;
72156;SDS011;60035;52.122;5.406;2023-05-08T13:55:11;32.47;;;19.70;;
72156;SDS011;60035;52.122;5.406;2023-05-08T13:57:39;34.15;;;19.17;;
72156;SDS011;60035;52.122;5.406;2023-05-08T14:00:06;31.92;;;19.23;;
72156;SDS011;60035;52.122;5.406;2023-05-08T14:02:34;31.10;;;18.70;;
72156;SDS011;60035;52.122;5.406;2023-05-08T14:05:02;33.88;;;19.98;;
72156;SDS011;60035;52.122;5.406;2023-05-08T14:07:30;32.95;;;19.88;;
72156;SDS011;60035;52.122;5.406;2023-05-08T14:09:56;32.80;;;20.40;;
72156;SDS011;60035;52.122;5.406;2023-05-08T14:12:23;31.42;;;19.08;;
72156;SDS011;60035;52.122;5.406;2023-05-08T14:14:49;31.73;;;20.02;;
72156;SDS011;60035;52.122;5.406;2023-05-08T14:17:16;33.08;;;19.48;;
72156;SDS011;60035;52.122;5.406;2023-05-08T14:19:43;32.38;;;19.83;;
72156;SDS011;60035;52.122;5.406;2023-05-08T14:22:11;32.50;;;18.58;;
72156;SDS011;60035;52.122;5.406;2023-05-08T14:24:37;29.33;;;17.92;;
72156;SDS011;60035;52.122;5.406;2023-05-08T14:27:04;29.45;;;18.20;;
72156;SDS011;60035;52.122;5.406;2023-05-08T14:29:32;32.00;;;19.30;;
72156;SDS011;60035;52.122;5.406;2023-05-08T14:31:58;34.42;;;19.13;;
72156;SDS011;60035;52.122;5.406;2023-05-08T14:34:25;30.10;;;18.23;;
72156;SDS011;60035;52.122;5.406;2023-05-08T14:36:54;33.60;;;20.30;;
72156;SDS011;60035;52.122;5.406;2023-05-08T14:39:20;31.50;;;17.38;;
72156;SDS011;60035;52.122;5.406;2023-05-08T14:41:47;29.65;;;17.02;;
72156;SDS011;60035;52.122;5.406;2023-05-08T14:44:33;30.63;;;18.98;;
72156;SDS011;60035;52.122;5.406;2023-05-08T14:47:00;29.52;;;17.67;;
72156;SDS011;60035;52.122;5.406;2023-05-08T14:49:26;31.05;;;18.52;;
72156;SDS011;60035;52.122;5.406;2023-05-08T14:52:13;31.60;;;18.13;;
72156;SDS011;60035;52.122;5.406;2023-05-08T14:54:39;33.35;;;18.83;;
72156;SDS011;60035;52.122;5.406;2023-05-08T14:57:06;30.45;;;18.13;;
72156;SDS011;60035;52.122;5.406;2023-05-08T14:59:33;28.98;;;16.48;;
72156;SDS011;60035;52.122;5.406;2023-05-08T15:01:59;30.77;;;18.30;;
72156;SDS011;60035;52.122;5.406;2023-05-08T15:04:27;32.75;;;19.75;;
72156;SDS011;60035;52.122;5.406;2023-05-08T15:06:53;30.48;;;18.40;;
72156;SDS011;60035;52.122;5.406;2023-05-08T15:09:20;30.58;;;17.80;;
72156;SDS011;60035;52.122;5.406;2023-05-08T15:11:46;30.00;;;19.35;;
72156;SDS011;60035;52.122;5.406;2023-05-08T15:14:13;27.88;;;16.50;;
72156;SDS011;60035;52.122;5.406;2023-05-08T15:16:39;30.58;;;19.92;;
72156;SDS011;60035;52.122;5.406;2023-05-08T15:19:06;32.13;;;18.98;;
72156;SDS011;60035;52.122;5.406;2023-05-08T15:21:34;33.28;;;19.90;;
72156;SDS011;60035;52.122;5.406;2023-05-08T15:24:00;33.70;;;18.38;;
72156;SDS011;60035;52.122;5.406;2023-05-08T15:26:27;32.03;;;19.92;;
72156;SDS011;60035;52.122;5.406;2023-05-08T15:28:53;32.97;;;19.05;;
72156;SDS011;60035;52.122;5.406;2023-05-08T15:31:20;33.53;;;19.90;;
72156;SDS011;60035;52.122;5.406;2023-05-08T15:33:47;32.22;;;19.92;;
72156;SDS011;60035;52.122;5.406;2023-05-08T15:36:13;32.83;;;18.88;;
72156;SDS011;60035;52.122;5.406;2023-05-08T15:38:40;33.42;;;20.20;;
72156;SDS011;60035;52.122;5.406;2023-05-08T15:41:10;31.50;;;19.35;;
72156;SDS011;60035;52.122;5.406;2023-05-08T15:43:40;30.70;;;19.05;;
72156;SDS011;60035;52.122;5.406;2023-05-08T15:46:14;32.47;;;18.63;;
72156;SDS011;60035;52.122;5.406;2023-05-08T15:48:42;30.67;;;18.38;;
72156;SDS011;60035;52.122;5.406;2023-05-08T15:51:09;30.85;;;17.90;;